Terminal Aerodrome Forecast
Issued by NWS

Home | Current Version | Previous Version | Text Only | Print | Product List | Glossary On
Versions: 1 2 3 4 5 6 7 8 9 10 11 12 13 14 15
000
FTUS43 KMQT 201739
TAFSAW
TAF
KSAW 201739Z 2018/2118 17013KT P6SM BKN200
     FM202200 16018G25KT P6SM OVC150
     FM202300 16018G26KT P6SM OVC100 WS007/17050KT
     FM210000 17019G26KT 6SM -SHRA OVC040 WS007/17050KT
     FM210200 17019G26KT 5SM -SHRA OVC025 WS007/18050KT
     FM210600 20011KT 3SM -SHRA OVC003 WS020/20050KT
     FM211000 25006KT 3SM BR VCTS BKN008CB
     FM211200 26006KT P6SM SCT015=

USA.gov is the U.S. government's official web portal to all federal, state and local government web resources and services.